sensor_id;sensor_type;location;lat;lon;timestamp;temperature;humidity
20862;DHT22;10591;52.532;13.348;2023-05-07T00:01:55;8.70;84.99
20862;DHT22;10591;52.532;13.348;2023-05-07T00:04:27;8.57;85.14
20862;DHT22;10591;52.532;13.348;2023-05-07T00:07:00;8.58;85.20
20862;DHT22;10591;52.532;13.348;2023-05-07T00:09:33;8.62;85.02
20862;DHT22;10591;52.532;13.348;2023-05-07T00:12:04;8.66;85.10
20862;DHT22;10591;52.532;13.348;2023-05-07T00:14:41;8.68;84.97
20862;DHT22;10591;52.532;13.348;2023-05-07T00:17:12;8.69;84.92
20862;DHT22;10591;52.532;13.348;2023-05-07T00:19:47;8.73;84.74
20862;DHT22;10591;52.532;13.348;2023-05-07T00:22:27;8.70;84.62
20862;DHT22;10591;52.532;13.348;2023-05-07T00:25:04;8.65;84.59
20862;DHT22;10591;52.532;13.348;2023-05-07T00:27:37;8.66;84.59
20862;DHT22;10591;52.532;13.348;2023-05-07T00:30:09;8.63;84.58
20862;DHT22;10591;52.532;13.348;2023-05-07T00:32:46;8.72;84.57
20862;DHT22;10591;52.532;13.348;2023-05-07T00:35:19;8.76;84.23
20862;DHT22;10591;52.532;13.348;2023-05-07T00:37:51;8.67;84.08
20862;DHT22;10591;52.532;13.348;2023-05-07T00:40:24;8.77;84.01
20862;DHT22;10591;52.532;13.348;2023-05-07T00:42:55;8.70;83.95
20862;DHT22;10591;52.532;13.348;2023-05-07T00:45:30;8.70;84.06
20862;DHT22;10591;52.532;13.348;2023-05-07T00:48:04;8.59;84.38
20862;DHT22;10591;52.532;13.348;2023-05-07T00:50:37;8.62;84.30
20862;DHT22;10591;52.532;13.348;2023-05-07T00:53:09;8.55;84.33
20862;DHT22;10591;52.532;13.348;2023-05-07T00:55:43;8.52;84.39
20862;DHT22;10591;52.532;13.348;2023-05-07T00:58:19;8.49;84.45
20862;DHT22;10591;52.532;13.348;2023-05-07T01:00:53;8.52;84.53
20862;DHT22;10591;52.532;13.348;2023-05-07T01:03:24;8.56;84.33
20862;DHT22;10591;52.532;13.348;2023-05-07T01:05:58;8.56;84.29
20862;DHT22;10591;52.532;13.348;2023-05-07T01:08:35;8.54;84.42
20862;DHT22;10591;52.532;13.348;2023-05-07T01:11:10;8.51;84.42
20862;DHT22;10591;52.532;13.348;2023-05-07T01:13:43;8.54;84.29
20862;DHT22;10591;52.532;13.348;2023-05-07T01:16:20;8.56;84.20
20862;DHT22;10591;52.532;13.348;2023-05-07T01:18:47;8.60;84.18
20862;DHT22;10591;52.532;13.348;2023-05-07T01:21:28;8.55;83.98
20862;DHT22;10591;52.532;13.348;2023-05-07T01:23:57;8.52;84.09
20862;DHT22;10591;52.532;13.348;2023-05-07T01:26:30;8.49;84.01
20862;DHT22;10591;52.532;13.348;2023-05-07T01:29:04;8.57;84.06
20862;DHT22;10591;52.532;13.348;2023-05-07T01:31:44;8.72;83.95
20862;DHT22;10591;52.532;13.348;2023-05-07T01:34:22;8.59;83.94
20862;DHT22;10591;52.532;13.348;2023-05-07T01:36:57;8.58;84.10
20862;DHT22;10591;52.532;13.348;2023-05-07T01:39:30;8.49;84.20
20862;DHT22;10591;52.532;13.348;2023-05-07T01:42:02;8.54;84.07
20862;DHT22;10591;52.532;13.348;2023-05-07T01:44:33;8.53;83.83
20862;DHT22;10591;52.532;13.348;2023-05-07T01:47:06;8.54;83.77
20862;DHT22;10591;52.532;13.348;2023-05-07T01:49:41;8.54;83.58
20862;DHT22;10591;52.532;13.348;2023-05-07T01:52:16;8.52;83.78
20862;DHT22;10591;52.532;13.348;2023-05-07T01:54:47;8.54;83.95
20862;DHT22;10591;52.532;13.348;2023-05-07T01:57:18;8.46;83.60
20862;DHT22;10591;52.532;13.348;2023-05-07T01:59:50;8.53;83.32
20862;DHT22;10591;52.532;13.348;2023-05-07T02:02:22;8.59;83.54
20862;DHT22;10591;52.532;13.348;2023-05-07T02:04:58;8.47;83.82
20862;DHT22;10591;52.532;13.348;2023-05-07T02:07:31;8.47;83.82
20862;DHT22;10591;52.532;13.348;2023-05-07T02:10:06;8.48;83.66
20862;DHT22;10591;52.532;13.348;2023-05-07T02:12:37;8.45;83.84
20862;DHT22;10591;52.532;13.348;2023-05-07T02:15:10;8.40;83.78
20862;DHT22;10591;52.532;13.348;2023-05-07T02:18:05;8.37;83.87
20862;DHT22;10591;52.532;13.348;2023-05-07T02:20:38;8.54;83.91
20862;DHT22;10591;52.532;13.348;2023-05-07T02:23:17;8.44;84.05
20862;DHT22;10591;52.532;13.348;2023-05-07T02:25:52;8.44;84.05
20862;DHT22;10591;52.532;13.348;2023-05-07T02:28:23;8.56;84.00
20862;DHT22;10591;52.532;13.348;2023-05-07T02:30:57;8.55;83.86
20862;DHT22;10591;52.532;13.348;2023-05-07T02:33:28;8.53;83.58
20862;DHT22;10591;52.532;13.348;2023-05-07T02:36:09;8.45;83.67
20862;DHT22;10591;52.532;13.348;2023-05-07T02:38:47;8.44;83.72
20862;DHT22;10591;52.532;13.348;2023-05-07T02:41:22;8.45;83.84
20862;DHT22;10591;52.532;13.348;2023-05-07T02:43:55;8.52;83.83
20862;DHT22;10591;52.532;13.348;2023-05-07T02:46:32;8.54;83.74
20862;DHT22;10591;52.532;13.348;2023-05-07T02:49:07;8.54;83.58
20862;DHT22;10591;52.532;13.348;2023-05-07T02:51:42;8.46;83.42
20862;DHT22;10591;52.532;13.348;2023-05-07T02:54:19;8.44;83.74
20862;DHT22;10591;52.532;13.348;2023-05-07T02:56:47;8.42;83.55
20862;DHT22;10591;52.532;13.348;2023-05-07T02:59:25;8.44;83.60
20862;DHT22;10591;52.532;13.348;2023-05-07T03:01:59;8.51;83.43
20862;DHT22;10591;52.532;13.348;2023-05-07T03:04:35;8.56;83.32
20862;DHT22;10591;52.532;13.348;2023-05-07T03:07:17;8.51;83.41
20862;DHT22;10591;52.532;13.348;2023-05-07T03:09:47;8.56;83.39
20862;DHT22;10591;52.532;13.348;2023-05-07T03:12:25;8.61;83.25
20862;DHT22;10591;52.532;13.348;2023-05-07T03:14:53;8.62;82.98
20862;DHT22;10591;52.532;13.348;2023-05-07T03:17:34;8.59;83.19
20862;DHT22;10591;52.532;13.348;2023-05-07T03:20:07;8.60;82.56
20862;DHT22;10591;52.532;13.348;2023-05-07T03:22:42;8.59;82.77
20862;DHT22;10591;52.532;13.348;2023-05-07T03:25:14;8.56;82.73
20862;DHT22;10591;52.532;13.348;2023-05-07T03:27:50;8.55;82.73
20862;DHT22;10591;52.532;13.348;2023-05-07T03:30:25;8.48;82.67
20862;DHT22;10591;52.532;13.348;2023-05-07T03:32:59;8.53;82.77
20862;DHT22;10591;52.532;13.348;2023-05-07T03:35:30;8.56;82.73
20862;DHT22;10591;52.532;13.348;2023-05-07T03:38:03;8.55;82.85
20862;DHT22;10591;52.532;13.348;2023-05-07T03:40:40;8.46;82.69
20862;DHT22;10591;52.532;13.348;2023-05-07T03:43:10;8.50;82.72
20862;DHT22;10591;52.532;13.348;2023-05-07T03:45:43;8.46;82.78
20862;DHT22;10591;52.532;13.348;2023-05-07T03:48:18;8.44;82.89
20862;DHT22;10591;52.532;13.348;2023-05-07T03:50:50;8.40;83.17
20862;DHT22;10591;52.532;13.348;2023-05-07T03:53:40;8.43;83.20
20862;DHT22;10591;52.532;13.348;2023-05-07T03:56:17;8.48;83.33
20862;DHT22;10591;52.532;13.348;2023-05-07T03:58:48;8.45;83.34
20862;DHT22;10591;52.532;13.348;2023-05-07T04:01:22;8.46;83.41
20862;DHT22;10591;52.532;13.348;2023-05-07T04:03:54;8.42;83.41
20862;DHT22;10591;52.532;13.348;2023-05-07T04:06:27;8.38;83.40
20862;DHT22;10591;52.532;13.348;2023-05-07T04:09:05;8.32;83.33
20862;DHT22;10591;52.532;13.348;2023-05-07T04:11:36;8.34;83.44
20862;DHT22;10591;52.532;13.348;2023-05-07T04:14:10;8.32;83.52
20862;DHT22;10591;52.532;13.348;2023-05-07T04:16:41;8.33;83.65
20862;DHT22;10591;52.532;13.348;2023-05-07T04:19:25;8.40;83.38
20862;DHT22;10591;52.532;13.348;2023-05-07T04:22:00;8.46;83.16
20862;DHT22;10591;52.532;13.348;2023-05-07T04:24:34;8.29;83.33
20862;DHT22;10591;52.532;13.348;2023-05-07T04:27:07;8.26;83.58
20862;DHT22;10591;52.532;13.348;2023-05-07T04:29:39;8.32;83.71
20862;DHT22;10591;52.532;13.348;2023-05-07T04:32:13;8.25;83.69
20862;DHT22;10591;52.532;13.348;2023-05-07T04:34:47;8.28;83.57
20862;DHT22;10591;52.532;13.348;2023-05-07T04:37:19;8.39;83.24
20862;DHT22;10591;52.532;13.348;2023-05-07T04:39:57;8.40;83.26
20862;DHT22;10591;52.532;13.348;2023-05-07T04:42:25;8.36;82.85
20862;DHT22;10591;52.532;13.348;2023-05-07T04:44:57;8.41;82.65
20862;DHT22;10591;52.532;13.348;2023-05-07T04:47:29;8.45;82.78
20862;DHT22;10591;52.532;13.348;2023-05-07T04:50:01;8.56;82.43
20862;DHT22;10591;52.532;13.348;2023-05-07T04:52:37;8.70;82.02
20862;DHT22;10591;52.532;13.348;2023-05-07T04:55:10;8.62;81.67
20862;DHT22;10591;52.532;13.348;2023-05-07T04:57:42;8.70;81.54
20862;DHT22;10591;52.532;13.348;2023-05-07T05:00:17;8.70;81.23
20862;DHT22;10591;52.532;13.348;2023-05-07T05:02:49;8.62;81.24
20862;DHT22;10591;52.532;13.348;2023-05-07T05:05:24;8.64;81.09
20862;DHT22;10591;52.532;13.348;2023-05-07T05:07:56;8.70;81.21
20862;DHT22;10591;52.532;13.348;2023-05-07T05:10:27;8.72;80.92
20862;DHT22;10591;52.532;13.348;2023-05-07T05:13:06;8.86;80.14
20862;DHT22;10591;52.532;13.348;2023-05-07T05:15:39;8.66;80.31
20862;DHT22;10591;52.532;13.348;2023-05-07T05:18:12;8.91;79.87
20862;DHT22;10591;52.532;13.348;2023-05-07T05:20:43;9.03;79.32
20862;DHT22;10591;52.532;13.348;2023-05-07T05:23:15;8.99;79.15
20862;DHT22;10591;52.532;13.348;2023-05-07T05:25:49;9.03;79.17
20862;DHT22;10591;52.532;13.348;2023-05-07T05:28:22;9.13;78.92
20862;DHT22;10591;52.532;13.348;2023-05-07T05:31:02;8.88;78.94
20862;DHT22;10591;52.532;13.348;2023-05-07T05:33:36;8.80;79.24
20862;DHT22;10591;52.532;13.348;2023-05-07T05:36:16;8.87;79.48
20862;DHT22;10591;52.532;13.348;2023-05-07T05:38:49;8.78;79.60
20862;DHT22;10591;52.532;13.348;2023-05-07T05:41:20;8.79;79.66
20862;DHT22;10591;52.532;13.348;2023-05-07T05:43:56;8.94;79.56
20862;DHT22;10591;52.532;13.348;2023-05-07T05:46:32;9.00;79.21
20862;DHT22;10591;52.532;13.348;2023-05-07T05:49:05;8.88;79.81
20862;DHT22;10591;52.532;13.348;2023-05-07T05:51:37;8.95;79.25
20862;DHT22;10591;52.532;13.348;2023-05-07T05:54:14;9.01;78.76
20862;DHT22;10591;52.532;13.348;2023-05-07T05:56:54;9.08;78.29
20862;DHT22;10591;52.532;13.348;2023-05-07T05:59:27;9.44;77.72
20862;DHT22;10591;52.532;13.348;2023-05-07T06:02:13;10.12;76.25
20862;DHT22;10591;52.532;13.348;2023-05-07T06:04:34;10.10;75.02
20862;DHT22;10591;52.532;13.348;2023-05-07T06:07:07;9.80;75.32
20862;DHT22;10591;52.532;13.348;2023-05-07T06:09:42;9.44;76.84
20862;DHT22;10591;52.532;13.348;2023-05-07T06:12:17;9.81;76.01
20862;DHT22;10591;52.532;13.348;2023-05-07T06:14:49;10.04;75.46
20862;DHT22;10591;52.532;13.348;2023-05-07T06:17:21;10.17;74.68
20862;DHT22;10591;52.532;13.348;2023-05-07T06:19:57;10.46;73.52
20862;DHT22;10591;52.532;13.348;2023-05-07T06:22:28;10.98;72.54
20862;DHT22;10591;52.532;13.348;2023-05-07T06:25:02;10.24;73.92
20862;DHT22;10591;52.532;13.348;2023-05-07T06:27:39;10.41;73.50
20862;DHT22;10591;52.532;13.348;2023-05-07T06:30:13;11.04;72.96
20862;DHT22;10591;52.532;13.348;2023-05-07T06:32:46;10.97;71.30
20862;DHT22;10591;52.532;13.348;2023-05-07T06:35:17;10.70;72.99
20862;DHT22;10591;52.532;13.348;2023-05-07T06:37:47;10.36;74.02
20862;DHT22;10591;52.532;13.348;2023-05-07T06:40:20;10.20;74.42
20862;DHT22;10591;52.532;13.348;2023-05-07T06:42:54;10.26;74.80
20862;DHT22;10591;52.532;13.348;2023-05-07T06:45:29;10.63;72.71
20862;DHT22;10591;52.532;13.348;2023-05-07T06:48:10;10.35;73.89
20862;DHT22;10591;52.532;13.348;2023-05-07T06:50:46;10.66;73.03
20862;DHT22;10591;52.532;13.348;2023-05-07T06:53:19;10.41;73.75
20862;DHT22;10591;52.532;13.348;2023-05-07T06:55:52;10.28;73.80
20862;DHT22;10591;52.532;13.348;2023-05-07T06:58:29;10.52;73.11
20862;DHT22;10591;52.532;13.348;2023-05-07T07:01:01;10.56;72.99
20862;DHT22;10591;52.532;13.348;2023-05-07T07:03:43;10.38;73.60
20862;DHT22;10591;52.532;13.348;2023-05-07T07:06:14;10.25;73.76
20862;DHT22;10591;52.532;13.348;2023-05-07T07:08:45;10.46;73.65
20862;DHT22;10591;52.532;13.348;2023-05-07T07:11:16;10.99;71.68
20862;DHT22;10591;52.532;13.348;2023-05-07T07:13:47;10.90;71.64
20862;DHT22;10591;52.532;13.348;2023-05-07T07:16:18;11.14;70.59
20862;DHT22;10591;52.532;13.348;2023-05-07T07:18:49;11.24;70.37
20862;DHT22;10591;52.532;13.348;2023-05-07T07:21:20;11.30;70.38
20862;DHT22;10591;52.532;13.348;2023-05-07T07:23:51;11.22;70.01
20862;DHT22;10591;52.532;13.348;2023-05-07T07:26:21;11.00;70.59
20862;DHT22;10591;52.532;13.348;2023-05-07T07:28:52;10.74;71.53
20862;DHT22;10591;52.532;13.348;2023-05-07T07:31:23;10.44;72.68
20862;DHT22;10591;52.532;13.348;2023-05-07T07:33:54;10.38;72.69
20862;DHT22;10591;52.532;13.348;2023-05-07T07:36:25;10.76;72.27
20862;DHT22;10591;52.532;13.348;2023-05-07T07:38:57;11.09;71.48
20862;DHT22;10591;52.532;13.348;2023-05-07T07:41:28;11.28;70.51
20862;DHT22;10591;52.532;13.348;2023-05-07T07:43:59;11.20;69.93
20862;DHT22;10591;52.532;13.348;2023-05-07T07:46:29;11.32;70.06
20862;DHT22;10591;52.532;13.348;2023-05-07T07:49:00;11.30;69.81
20862;DHT22;10591;52.532;13.348;2023-05-07T07:51:31;11.14;70.22
20862;DHT22;10591;52.532;13.348;2023-05-07T07:54:02;10.79;70.92
20862;DHT22;10591;52.532;13.348;2023-05-07T07:56:35;10.90;70.97
20862;DHT22;10591;52.532;13.348;2023-05-07T07:59:05;10.84;70.87
20862;DHT22;10591;52.532;13.348;2023-05-07T08:01:36;10.86;70.93
20862;DHT22;10591;52.532;13.348;2023-05-07T08:04:07;11.14;70.35
20862;DHT22;10591;52.532;13.348;2023-05-07T08:06:38;11.07;69.02
20862;DHT22;10591;52.532;13.348;2023-05-07T08:09:09;11.28;69.14
20862;DHT22;10591;52.532;13.348;2023-05-07T08:11:40;11.58;68.68
20862;DHT22;10591;52.532;13.348;2023-05-07T08:14:11;11.75;67.81
20862;DHT22;10591;52.532;13.348;2023-05-07T08:16:43;12.02;67.09
20862;DHT22;10591;52.532;13.348;2023-05-07T08:19:15;12.00;66.70
20862;DHT22;10591;52.532;13.348;2023-05-07T08:21:46;11.93;66.21
20862;DHT22;10591;52.532;13.348;2023-05-07T08:24:18;11.90;66.04
20862;DHT22;10591;52.532;13.348;2023-05-07T08:26:49;11.80;66.03
20862;DHT22;10591;52.532;13.348;2023-05-07T08:29:21;12.16;65.44
20862;DHT22;10591;52.532;13.348;2023-05-07T08:31:52;12.74;64.06
20862;DHT22;10591;52.532;13.348;2023-05-07T08:34:23;12.50;64.27
20862;DHT22;10591;52.532;13.348;2023-05-07T08:36:54;12.26;64.93
20862;DHT22;10591;52.532;13.348;2023-05-07T08:39:29;11.77;65.61
20862;DHT22;10591;52.532;13.348;2023-05-07T08:42:03;12.27;65.08
20862;DHT22;10591;52.532;13.348;2023-05-07T08:44:38;12.28;64.91
20862;DHT22;10591;52.532;13.348;2023-05-07T08:47:10;12.08;65.38
20862;DHT22;10591;52.532;13.348;2023-05-07T08:49:41;11.80;66.52
20862;DHT22;10591;52.532;13.348;2023-05-07T08:52:12;12.04;66.10
20862;DHT22;10591;52.532;13.348;2023-05-07T08:54:45;12.51;64.72
20862;DHT22;10591;52.532;13.348;2023-05-07T08:57:16;12.67;64.65
20862;DHT22;10591;52.532;13.348;2023-05-07T08:59:47;13.51;62.94
20862;DHT22;10591;52.532;13.348;2023-05-07T09:02:20;13.48;61.84
20862;DHT22;10591;52.532;13.348;2023-05-07T09:04:51;13.31;61.79
20862;DHT22;10591;52.532;13.348;2023-05-07T09:07:25;13.07;62.21
20862;DHT22;10591;52.532;13.348;2023-05-07T09:09:56;13.29;62.07
20862;DHT22;10591;52.532;13.348;2023-05-07T09:12:27;13.59;60.71
20862;DHT22;10591;52.532;13.348;2023-05-07T09:14:59;13.18;61.22
20862;DHT22;10591;52.532;13.348;2023-05-07T09:17:30;13.22;61.34
20862;DHT22;10591;52.532;13.348;2023-05-07T09:20:04;13.80;60.80
20862;DHT22;10591;52.532;13.348;2023-05-07T09:22:37;14.13;59.01
20862;DHT22;10591;52.532;13.348;2023-05-07T09:25:08;14.06;59.53
20862;DHT22;10591;52.532;13.348;2023-05-07T09:27:43;13.47;61.21
20862;DHT22;10591;52.532;13.348;2023-05-07T09:30:14;12.99;62.91
20862;DHT22;10591;52.532;13.348;2023-05-07T09:32:44;12.96;63.11
20862;DHT22;10591;52.532;13.348;2023-05-07T09:35:17;12.74;63.67
20862;DHT22;10591;52.532;13.348;2023-05-07T09:37:48;12.90;63.38
20862;DHT22;10591;52.532;13.348;2023-05-07T09:40:30;12.96;63.31
20862;DHT22;10591;52.532;13.348;2023-05-07T09:43:15;13.29;62.45
20862;DHT22;10591;52.532;13.348;2023-05-07T09:45:48;13.46;61.93
20862;DHT22;10591;52.532;13.348;2023-05-07T09:48:21;13.58;61.58
20862;DHT22;10591;52.532;13.348;2023-05-07T09:50:56;12.78;63.47
20862;DHT22;10591;52.532;13.348;2023-05-07T09:53:30;12.86;63.63
20862;DHT22;10591;52.532;13.348;2023-05-07T09:56:04;12.56;64.15
20862;DHT22;10591;52.532;13.348;2023-05-07T09:58:37;13.01;62.74
20862;DHT22;10591;52.532;13.348;2023-05-07T10:01:11;13.16;62.31
20862;DHT22;10591;52.532;13.348;2023-05-07T10:03:44;13.41;61.66
20862;DHT22;10591;52.532;13.348;2023-05-07T10:06:20;13.70;60.69
20862;DHT22;10591;52.532;13.348;2023-05-07T10:08:52;13.65;60.29
20862;DHT22;10591;52.532;13.348;2023-05-07T10:11:26;13.92;59.98
20862;DHT22;10591;52.532;13.348;2023-05-07T10:13:59;13.34;60.95
20862;DHT22;10591;52.532;13.348;2023-05-07T10:16:34;13.11;62.02
20862;DHT22;10591;52.532;13.348;2023-05-07T10:19:09;13.02;61.54
20862;DHT22;10591;52.532;13.348;2023-05-07T10:21:44;13.23;61.35
20862;DHT22;10591;52.532;13.348;2023-05-07T10:24:22;13.35;61.39
20862;DHT22;10591;52.532;13.348;2023-05-07T10:26:56;13.47;61.07
20862;DHT22;10591;52.532;13.348;2023-05-07T10:32:20;13.55;60.70
20862;DHT22;10591;52.532;13.348;2023-05-07T10:34:48;13.48;59.93
20862;DHT22;10591;52.532;13.348;2023-05-07T10:37:22;13.62;59.93
20862;DHT22;10591;52.532;13.348;2023-05-07T10:39:54;14.22;58.24
20862;DHT22;10591;52.532;13.348;2023-05-07T10:42:29;14.74;57.22
20862;DHT22;10591;52.532;13.348;2023-05-07T10:45:19;13.96;58.52
20862;DHT22;10591;52.532;13.348;2023-05-07T10:48:08;13.60;59.84
20862;DHT22;10591;52.532;13.348;2023-05-07T10:50:43;13.46;60.37
20862;DHT22;10591;52.532;13.348;2023-05-07T10:53:20;13.52;60.78
20862;DHT22;10591;52.532;13.348;2023-05-07T10:58:46;13.99;59.49
20862;DHT22;10591;52.532;13.348;2023-05-07T11:01:48;14.19;58.23
20862;DHT22;10591;52.532;13.348;2023-05-07T11:04:14;14.18;58.16
20862;DHT22;10591;52.532;13.348;2023-05-07T11:15:13;13.62;59.49
20862;DHT22;10591;52.532;13.348;2023-05-07T11:17:57;14.05;58.06
20862;DHT22;10591;52.532;13.348;2023-05-07T11:26:10;14.62;56.30
20862;DHT22;10591;52.532;13.348;2023-05-07T11:28:43;14.64;55.67
20862;DHT22;10591;52.532;13.348;2023-05-07T11:31:14;14.63;55.88
20862;DHT22;10591;52.532;13.348;2023-05-07T11:33:49;14.74;55.92
20862;DHT22;10591;52.532;13.348;2023-05-07T11:36:22;14.46;56.88
20862;DHT22;10591;52.532;13.348;2023-05-07T11:38:55;14.86;56.18
20862;DHT22;10591;52.532;13.348;2023-05-07T11:41:35;14.58;56.86
20862;DHT22;10591;52.532;13.348;2023-05-07T11:44:15;14.82;56.33
20862;DHT22;10591;52.532;13.348;2023-05-07T11:46:46;14.61;56.21
20862;DHT22;10591;52.532;13.348;2023-05-07T11:49:24;14.54;56.65
20862;DHT22;10591;52.532;13.348;2023-05-07T11:51:55;15.15;55.05
20862;DHT22;10591;52.532;13.348;2023-05-07T11:54:26;14.33;56.55
20862;DHT22;10591;52.532;13.348;2023-05-07T11:56:58;14.24;56.87
20862;DHT22;10591;52.532;13.348;2023-05-07T11:59:30;14.27;56.94
20862;DHT22;10591;52.532;13.348;2023-05-07T12:02:00;14.50;56.31
20862;DHT22;10591;52.532;13.348;2023-05-07T12:04:31;14.38;55.84
20862;DHT22;10591;52.532;13.348;2023-05-07T12:07:04;14.23;56.63
20862;DHT22;10591;52.532;13.348;2023-05-07T12:09:35;14.44;56.21
20862;DHT22;10591;52.532;13.348;2023-05-07T12:12:07;14.64;55.85
20862;DHT22;10591;52.532;13.348;2023-05-07T12:14:40;14.68;56.16
20862;DHT22;10591;52.532;13.348;2023-05-07T12:17:14;15.07;54.98
20862;DHT22;10591;52.532;13.348;2023-05-07T12:19:45;14.97;55.00
20862;DHT22;10591;52.532;13.348;2023-05-07T12:22:20;15.44;54.22
20862;DHT22;10591;52.532;13.348;2023-05-07T12:24:58;15.32;54.08
20862;DHT22;10591;52.532;13.348;2023-05-07T12:27:36;14.94;54.57
20862;DHT22;10591;52.532;13.348;2023-05-07T12:30:01;15.18;54.57
20862;DHT22;10591;52.532;13.348;2023-05-07T12:32:34;14.73;55.08
20862;DHT22;10591;52.532;13.348;2023-05-07T12:35:07;14.92;54.99
20862;DHT22;10591;52.532;13.348;2023-05-07T12:37:41;14.97;54.52
20862;DHT22;10591;52.532;13.348;2023-05-07T12:40:13;14.98;54.45
20862;DHT22;10591;52.532;13.348;2023-05-07T12:42:47;14.84;54.40
20862;DHT22;10591;52.532;13.348;2023-05-07T12:45:19;14.90;54.53
20862;DHT22;10591;52.532;13.348;2023-05-07T12:47:50;15.30;53.80
20862;DHT22;10591;52.532;13.348;2023-05-07T12:50:23;15.20;53.72
20862;DHT22;10591;52.532;13.348;2023-05-07T12:52:55;15.27;53.61
20862;DHT22;10591;52.532;13.348;2023-05-07T12:55:26;15.52;52.70
20862;DHT22;10591;52.532;13.348;2023-05-07T12:58:01;15.82;52.09
20862;DHT22;10591;52.532;13.348;2023-05-07T13:00:37;15.65;52.65
20862;DHT22;10591;52.532;13.348;2023-05-07T13:03:10;15.79;52.37
20862;DHT22;10591;52.532;13.348;2023-05-07T13:05:42;15.66;52.28
20862;DHT22;10591;52.532;13.348;2023-05-07T13:08:27;15.56;52.73
20862;DHT22;10591;52.532;13.348;2023-05-07T13:10:49;15.68;52.04
20862;DHT22;10591;52.532;13.348;2023-05-07T13:13:23;15.82;52.00
20862;DHT22;10591;52.532;13.348;2023-05-07T13:15:54;15.42;52.16
20862;DHT22;10591;52.532;13.348;2023-05-07T13:18:26;15.28;52.91
20862;DHT22;10591;52.532;13.348;2023-05-07T13:20:59;15.40;52.13
20862;DHT22;10591;52.532;13.348;2023-05-07T13:23:34;15.18;51.98
20862;DHT22;10591;52.532;13.348;2023-05-07T13:26:09;15.50;51.52
20862;DHT22;10591;52.532;13.348;2023-05-07T13:28:42;15.80;50.75
20862;DHT22;10591;52.532;13.348;2023-05-07T13:31:13;15.71;50.90
20862;DHT22;10591;52.532;13.348;2023-05-07T13:33:47;15.76;50.82
20862;DHT22;10591;52.532;13.348;2023-05-07T13:36:20;15.74;51.34
20862;DHT22;10591;52.532;13.348;2023-05-07T13:38:56;15.42;51.70
20862;DHT22;10591;52.532;13.348;2023-05-07T13:41:33;15.30;52.39
20862;DHT22;10591;52.532;13.348;2023-05-07T13:44:10;15.26;52.50
20862;DHT22;10591;52.532;13.348;2023-05-07T13:46:42;15.35;52.18
20862;DHT22;10591;52.532;13.348;2023-05-07T13:49:16;15.60;51.29
20862;DHT22;10591;52.532;13.348;2023-05-07T13:51:47;16.05;50.79
20862;DHT22;10591;52.532;13.348;2023-05-07T13:54:18;15.72;51.46
20862;DHT22;10591;52.532;13.348;2023-05-07T13:56:50;15.36;52.28
20862;DHT22;10591;52.532;13.348;2023-05-07T13:59:21;15.24;52.75
20862;DHT22;10591;52.532;13.348;2023-05-07T14:01:51;15.51;52.08
20862;DHT22;10591;52.532;13.348;2023-05-07T14:04:22;15.77;51.22
20862;DHT22;10591;52.532;13.348;2023-05-07T14:06:54;15.76;51.10
20862;DHT22;10591;52.532;13.348;2023-05-07T14:09:25;15.50;51.03
20862;DHT22;10591;52.532;13.348;2023-05-07T14:11:56;15.58;51.88
20862;DHT22;10591;52.532;13.348;2023-05-07T14:14:27;15.69;51.77
20862;DHT22;10591;52.532;13.348;2023-05-07T14:16:57;15.59;51.82
20862;DHT22;10591;52.532;13.348;2023-05-07T14:19:29;15.04;52.42
20862;DHT22;10591;52.532;13.348;2023-05-07T14:22:01;15.10;53.26
20862;DHT22;10591;52.532;13.348;2023-05-07T14:24:32;15.00;53.03
20862;DHT22;10591;52.532;13.348;2023-05-07T14:27:04;15.00;52.63
20862;DHT22;10591;52.532;13.348;2023-05-07T14:29:35;15.00;52.56
20862;DHT22;10591;52.532;13.348;2023-05-07T14:32:06;15.02;52.72
20862;DHT22;10591;52.532;13.348;2023-05-07T14:34:38;15.02;52.72
20862;DHT22;10591;52.532;13.348;2023-05-07T14:37:08;15.12;52.71
20862;DHT22;10591;52.532;13.348;2023-05-07T14:39:40;15.18;52.31
20862;DHT22;10591;52.532;13.348;2023-05-07T14:42:10;15.07;52.33
20862;DHT22;10591;52.532;13.348;2023-05-07T14:44:41;14.96;52.62
20862;DHT22;10591;52.532;13.348;2023-05-07T14:47:16;14.90;52.27
20862;DHT22;10591;52.532;13.348;2023-05-07T14:49:48;15.06;52.02
20862;DHT22;10591;52.532;13.348;2023-05-07T14:52:19;15.36;51.35
20862;DHT22;10591;52.532;13.348;2023-05-07T14:54:50;15.60;50.11
20862;DHT22;10591;52.532;13.348;2023-05-07T14:57:22;15.56;49.69
20862;DHT22;10591;52.532;13.348;2023-05-07T14:59:53;15.40;50.18
20862;DHT22;10591;52.532;13.348;2023-05-07T15:02:24;15.30;50.41
20862;DHT22;10591;52.532;13.348;2023-05-07T15:04:54;15.45;50.43
20862;DHT22;10591;52.532;13.348;2023-05-07T15:07:26;15.52;50.22
20862;DHT22;10591;52.532;13.348;2023-05-07T15:09:59;16.17;49.37
20862;DHT22;10591;52.532;13.348;2023-05-07T15:12:30;16.47;48.97
20862;DHT22;10591;52.532;13.348;2023-05-07T15:15:03;16.40;48.64
20862;DHT22;10591;52.532;13.348;2023-05-07T15:17:37;16.21;48.87
20862;DHT22;10591;52.532;13.348;2023-05-07T15:20:08;16.78;48.25
20862;DHT22;10591;52.532;13.348;2023-05-07T15:22:40;17.20;47.67
20862;DHT22;10591;52.532;13.348;2023-05-07T15:25:11;16.52;49.16
20862;DHT22;10591;52.532;13.348;2023-05-07T15:27:43;16.60;49.64
20862;DHT22;10591;52.532;13.348;2023-05-07T15:30:14;16.45;49.88
20862;DHT22;10591;52.532;13.348;2023-05-07T15:32:46;15.92;50.52
20862;DHT22;10591;52.532;13.348;2023-05-07T15:35:18;15.66;51.48
20862;DHT22;10591;52.532;13.348;2023-05-07T15:37:52;15.39;51.79
20862;DHT22;10591;52.532;13.348;2023-05-07T15:40:23;15.66;51.70
20862;DHT22;10591;52.532;13.348;2023-05-07T15:42:55;15.76;51.40
20862;DHT22;10591;52.532;13.348;2023-05-07T15:45:26;15.78;51.00
20862;DHT22;10591;52.532;13.348;2023-05-07T15:47:57;15.55;51.31
20862;DHT22;10591;52.532;13.348;2023-05-07T15:50:28;15.58;51.66
20862;DHT22;10591;52.532;13.348;2023-05-07T15:52:59;15.64;51.76
20862;DHT22;10591;52.532;13.348;2023-05-07T15:55:32;15.34;51.60
20862;DHT22;10591;52.532;13.348;2023-05-07T15:58:02;15.04;50.47
20862;DHT22;10591;52.532;13.348;2023-05-07T16:00:35;14.95;50.71
20862;DHT22;10591;52.532;13.348;2023-05-07T16:03:09;14.88;50.79
20862;DHT22;10591;52.532;13.348;2023-05-07T16:05:40;14.82;51.37
20862;DHT22;10591;52.532;13.348;2023-05-07T16:08:10;15.00;51.55
20862;DHT22;10591;52.532;13.348;2023-05-07T16:10:41;15.21;51.23
20862;DHT22;10591;52.532;13.348;2023-05-07T16:13:13;15.41;51.01
20862;DHT22;10591;52.532;13.348;2023-05-07T16:15:46;15.18;51.57
20862;DHT22;10591;52.532;13.348;2023-05-07T16:18:18;15.25;51.43
20862;DHT22;10591;52.532;13.348;2023-05-07T16:20:49;15.30;51.13